Terminal Aerodrome Forecast
Issued by NWS

Home | Current Version | Previous Version | Text Only | Print | Product List | Glossary Off
Versions: 1 2 3 4 5 6 7 8 9 10 11 12 13 14 15 16 17 18 19 20 21 22

000
FTUS43 KGRB 031453 AAA
TAFAUW
TAF AMD
KAUW 031453Z 0315/0412 01004KT P6SM SCT007 BKN020
      TEMPO 0315/0317 BKN007
     FM032100 05005KT P6SM VCSH SCT040 SCT100
     FM040100 04004KT P6SM SCT050
     FM040600 VRB02KT 3SM BR SCT004
      TEMPO 0408/0412 1SM BR BKN004=

USA.gov is the U.S. government's official web portal to all federal, state and local government web resources and services.